sensor_id;sensor_type;location;lat;lon;timestamp;temperature;humidity
56542;DHT22;42438;53.174;6.730;2022-12-07T00:02:16;2.80;99.90
56542;DHT22;42438;53.174;6.730;2022-12-07T00:04:49;2.90;99.90
56542;DHT22;42438;53.174;6.730;2022-12-07T00:07:20;3.40;99.90
56542;DHT22;42438;53.174;6.730;2022-12-07T00:09:50;3.00;99.90
56542;DHT22;42438;53.174;6.730;2022-12-07T00:12:21;3.10;99.90
56542;DHT22;42438;53.174;6.730;2022-12-07T00:14:51;3.10;99.90
56542;DHT22;42438;53.174;6.730;2022-12-07T00:17:22;3.00;99.90
56542;DHT22;42438;53.174;6.730;2022-12-07T00:19:53;3.00;99.90
56542;DHT22;42438;53.174;6.730;2022-12-07T00:22:23;2.90;99.90
56542;DHT22;42438;53.174;6.730;2022-12-07T00:24:54;2.80;99.90
56542;DHT22;42438;53.174;6.730;2022-12-07T00:27:25;2.70;99.90
56542;DHT22;42438;53.174;6.730;2022-12-07T00:29:55;2.70;99.90
56542;DHT22;42438;53.174;6.730;2022-12-07T00:32:26;2.70;99.90
56542;DHT22;42438;53.174;6.730;2022-12-07T00:34:57;3.20;99.90
56542;DHT22;42438;53.174;6.730;2022-12-07T00:37:27;2.70;99.90
56542;DHT22;42438;53.174;6.730;2022-12-07T00:39:58;2.70;99.90
56542;DHT22;42438;53.174;6.730;2022-12-07T00:42:29;2.80;99.90
56542;DHT22;42438;53.174;6.730;2022-12-07T00:44:59;2.70;99.90
56542;DHT22;42438;53.174;6.730;2022-12-07T00:47:30;2.70;99.90
56542;DHT22;42438;53.174;6.730;2022-12-07T00:50:01;2.60;99.90
56542;DHT22;42438;53.174;6.730;2022-12-07T00:52:31;2.60;99.90
56542;DHT22;42438;53.174;6.730;2022-12-07T00:55:02;2.80;99.90
56542;DHT22;42438;53.174;6.730;2022-12-07T00:57:33;3.00;99.90
56542;DHT22;42438;53.174;6.730;2022-12-07T01:00:04;2.90;99.90
56542;DHT22;42438;53.174;6.730;2022-12-07T01:02:34;3.20;99.90
56542;DHT22;42438;53.174;6.730;2022-12-07T01:05:05;3.10;99.90
56542;DHT22;42438;53.174;6.730;2022-12-07T01:07:37;3.20;99.90
56542;DHT22;42438;53.174;6.730;2022-12-07T01:10:08;3.20;99.90
56542;DHT22;42438;53.174;6.730;2022-12-07T01:12:39;3.10;99.90
56542;DHT22;42438;53.174;6.730;2022-12-07T01:15:11;3.40;99.90
56542;DHT22;42438;53.174;6.730;2022-12-07T01:17:41;3.40;99.90
56542;DHT22;42438;53.174;6.730;2022-12-07T01:20:12;3.30;99.90
56542;DHT22;42438;53.174;6.730;2022-12-07T01:22:44;3.50;99.90
56542;DHT22;42438;53.174;6.730;2022-12-07T01:25:14;3.60;99.90
56542;DHT22;42438;53.174;6.730;2022-12-07T01:27:45;3.90;99.90
56542;DHT22;42438;53.174;6.730;2022-12-07T01:30:16;3.50;99.90
56542;DHT22;42438;53.174;6.730;2022-12-07T01:32:46;3.60;99.90
56542;DHT22;42438;53.174;6.730;2022-12-07T01:35:17;3.50;99.90
56542;DHT22;42438;53.174;6.730;2022-12-07T01:37:48;3.30;99.90
56542;DHT22;42438;53.174;6.730;2022-12-07T01:40:18;3.30;99.90
56542;DHT22;42438;53.174;6.730;2022-12-07T01:42:49;3.30;99.90
56542;DHT22;42438;53.174;6.730;2022-12-07T01:45:38;3.00;99.90
56542;DHT22;42438;53.174;6.730;2022-12-07T01:48:11;3.00;99.90
56542;DHT22;42438;53.174;6.730;2022-12-07T01:50:44;4.40;99.90
56542;DHT22;42438;53.174;6.730;2022-12-07T01:53:16;3.20;99.90
56542;DHT22;42438;53.174;6.730;2022-12-07T01:55:50;3.50;99.90
56542;DHT22;42438;53.174;6.730;2022-12-07T01:58:22;4.40;99.90
56542;DHT22;42438;53.174;6.730;2022-12-07T02:00:54;3.90;99.90
56542;DHT22;42438;53.174;6.730;2022-12-07T02:03:32;3.90;99.90
56542;DHT22;42438;53.174;6.730;2022-12-07T02:06:06;4.20;99.90
56542;DHT22;42438;53.174;6.730;2022-12-07T02:08:37;3.90;99.90
56542;DHT22;42438;53.174;6.730;2022-12-07T02:11:09;4.00;99.90
56542;DHT22;42438;53.174;6.730;2022-12-07T02:13:42;4.00;99.90
56542;DHT22;42438;53.174;6.730;2022-12-07T02:22:28;3.60;99.90
56542;DHT22;42438;53.174;6.730;2022-12-07T02:27:56;3.70;99.90
56542;DHT22;42438;53.174;6.730;2022-12-07T02:30:33;3.00;99.90
56542;DHT22;42438;53.174;6.730;2022-12-07T02:38:16;3.50;99.90
56542;DHT22;42438;53.174;6.730;2022-12-07T02:41:30;2.70;99.90
56542;DHT22;42438;53.174;6.730;2022-12-07T02:44:15;2.60;99.90
56542;DHT22;42438;53.174;6.730;2022-12-07T02:46:54;3.20;99.90
56542;DHT22;42438;53.174;6.730;2022-12-07T02:49:36;2.70;99.90
56542;DHT22;42438;53.174;6.730;2022-12-07T02:52:08;2.80;99.90
56542;DHT22;42438;53.174;6.730;2022-12-07T02:54:39;2.70;99.90
56542;DHT22;42438;53.174;6.730;2022-12-07T02:57:34;2.60;99.90
56542;DHT22;42438;53.174;6.730;2022-12-07T03:00:15;2.60;99.90
56542;DHT22;42438;53.174;6.730;2022-12-07T03:05:58;2.80;99.90
56542;DHT22;42438;53.174;6.730;2022-12-07T03:08:56;3.00;99.90
56542;DHT22;42438;53.174;6.730;2022-12-07T03:11:56;3.30;99.90
56542;DHT22;42438;53.174;6.730;2022-12-07T03:14:36;3.30;99.90
56542;DHT22;42438;53.174;6.730;2022-12-07T03:17:21;4.50;99.90
56542;DHT22;42438;53.174;6.730;2022-12-07T03:19:58;4.70;99.90
56542;DHT22;42438;53.174;6.730;2022-12-07T03:22:31;3.20;99.90
56542;DHT22;42438;53.174;6.730;2022-12-07T03:25:07;3.50;99.90
56542;DHT22;42438;53.174;6.730;2022-12-07T03:27:53;3.40;99.90
56542;DHT22;42438;53.174;6.730;2022-12-07T03:31:00;3.40;99.90
56542;DHT22;42438;53.174;6.730;2022-12-07T03:33:41;3.40;99.90
56542;DHT22;42438;53.174;6.730;2022-12-07T03:36:40;3.70;99.90
56542;DHT22;42438;53.174;6.730;2022-12-07T03:39:24;3.60;99.90
56542;DHT22;42438;53.174;6.730;2022-12-07T03:41:59;3.40;99.90
56542;DHT22;42438;53.174;6.730;2022-12-07T03:44:31;3.40;99.90
56542;DHT22;42438;53.174;6.730;2022-12-07T03:47:12;3.50;99.90
56542;DHT22;42438;53.174;6.730;2022-12-07T03:49:48;3.90;99.90
56542;DHT22;42438;53.174;6.730;2022-12-07T03:52:36;3.80;99.90
56542;DHT22;42438;53.174;6.730;2022-12-07T03:55:15;3.50;99.90
56542;DHT22;42438;53.174;6.730;2022-12-07T03:57:51;3.60;99.90
56542;DHT22;42438;53.174;6.730;2022-12-07T04:00:24;3.80;99.90
56542;DHT22;42438;53.174;6.730;2022-12-07T04:02:55;3.70;99.90
56542;DHT22;42438;53.174;6.730;2022-12-07T04:05:26;3.60;99.90
56542;DHT22;42438;53.174;6.730;2022-12-07T04:07:57;3.40;99.90
56542;DHT22;42438;53.174;6.730;2022-12-07T04:10:27;4.20;99.90
56542;DHT22;42438;53.174;6.730;2022-12-07T04:12:58;3.20;99.90
56542;DHT22;42438;53.174;6.730;2022-12-07T04:15:29;3.20;99.90
56542;DHT22;42438;53.174;6.730;2022-12-07T04:17:59;3.20;99.90
56542;DHT22;42438;53.174;6.730;2022-12-07T04:20:30;3.30;99.90
56542;DHT22;42438;53.174;6.730;2022-12-07T04:23:00;3.10;99.90
56542;DHT22;42438;53.174;6.730;2022-12-07T04:25:31;2.70;99.90
56542;DHT22;42438;53.174;6.730;2022-12-07T04:28:02;2.90;99.90
56542;DHT22;42438;53.174;6.730;2022-12-07T04:30:32;2.80;99.90
56542;DHT22;42438;53.174;6.730;2022-12-07T04:33:03;2.70;99.90
56542;DHT22;42438;53.174;6.730;2022-12-07T04:35:34;3.10;99.90
56542;DHT22;42438;53.174;6.730;2022-12-07T04:38:04;2.70;99.90
56542;DHT22;42438;53.174;6.730;2022-12-07T04:40:35;2.90;99.90
56542;DHT22;42438;53.174;6.730;2022-12-07T04:43:06;3.10;99.90
56542;DHT22;42438;53.174;6.730;2022-12-07T04:45:36;4.00;99.90
56542;DHT22;42438;53.174;6.730;2022-12-07T04:48:07;3.00;99.90
56542;DHT22;42438;53.174;6.730;2022-12-07T04:50:38;2.80;99.90
56542;DHT22;42438;53.174;6.730;2022-12-07T04:53:08;3.20;99.90
56542;DHT22;42438;53.174;6.730;2022-12-07T04:55:39;3.00;99.90
56542;DHT22;42438;53.174;6.730;2022-12-07T04:58:10;3.20;99.90
56542;DHT22;42438;53.174;6.730;2022-12-07T05:00:41;3.20;99.90
56542;DHT22;42438;53.174;6.730;2022-12-07T05:03:11;3.20;99.90
56542;DHT22;42438;53.174;6.730;2022-12-07T05:05:42;3.60;99.90
56542;DHT22;42438;53.174;6.730;2022-12-07T05:08:13;3.40;99.90
56542;DHT22;42438;53.174;6.730;2022-12-07T05:10:43;3.10;99.90
56542;DHT22;42438;53.174;6.730;2022-12-07T05:13:14;3.50;99.90
56542;DHT22;42438;53.174;6.730;2022-12-07T05:15:47;3.30;99.90
56542;DHT22;42438;53.174;6.730;2022-12-07T05:18:17;2.70;99.90
56542;DHT22;42438;53.174;6.730;2022-12-07T05:20:48;3.10;99.90
56542;DHT22;42438;53.174;6.730;2022-12-07T05:23:19;2.80;99.90
56542;DHT22;42438;53.174;6.730;2022-12-07T05:25:50;2.50;99.90
56542;DHT22;42438;53.174;6.730;2022-12-07T05:28:21;3.00;99.90
56542;DHT22;42438;53.174;6.730;2022-12-07T05:30:51;2.10;99.90
56542;DHT22;42438;53.174;6.730;2022-12-07T05:33:22;2.10;99.90
56542;DHT22;42438;53.174;6.730;2022-12-07T05:35:53;2.50;99.90
56542;DHT22;42438;53.174;6.730;2022-12-07T05:38:23;1.60;99.90
56542;DHT22;42438;53.174;6.730;2022-12-07T05:40:55;2.00;99.90
56542;DHT22;42438;53.174;6.730;2022-12-07T05:43:26;2.10;99.90
56542;DHT22;42438;53.174;6.730;2022-12-07T05:45:57;1.90;99.90
56542;DHT22;42438;53.174;6.730;2022-12-07T05:48:27;1.80;99.90
56542;DHT22;42438;53.174;6.730;2022-12-07T05:50:58;1.90;99.90
56542;DHT22;42438;53.174;6.730;2022-12-07T05:53:28;1.80;99.90
56542;DHT22;42438;53.174;6.730;2022-12-07T05:55:59;1.80;99.90
56542;DHT22;42438;53.174;6.730;2022-12-07T05:58:30;1.70;99.90
56542;DHT22;42438;53.174;6.730;2022-12-07T06:01:19;1.60;99.90
56542;DHT22;42438;53.174;6.730;2022-12-07T06:03:50;2.00;99.90
56542;DHT22;42438;53.174;6.730;2022-12-07T06:06:21;1.60;99.90
56542;DHT22;42438;53.174;6.730;2022-12-07T06:08:51;1.70;99.90
56542;DHT22;42438;53.174;6.730;2022-12-07T06:11:22;1.70;99.90
56542;DHT22;42438;53.174;6.730;2022-12-07T06:14:11;1.70;99.90
56542;DHT22;42438;53.174;6.730;2022-12-07T06:16:42;1.70;99.90
56542;DHT22;42438;53.174;6.730;2022-12-07T06:19:12;1.60;99.90
56542;DHT22;42438;53.174;6.730;2022-12-07T06:21:43;1.90;99.90
56542;DHT22;42438;53.174;6.730;2022-12-07T06:24:15;2.00;99.90
56542;DHT22;42438;53.174;6.730;2022-12-07T06:26:46;2.60;99.90
56542;DHT22;42438;53.174;6.730;2022-12-07T06:29:17;2.70;99.90
56542;DHT22;42438;53.174;6.730;2022-12-07T06:31:48;2.60;99.90
56542;DHT22;42438;53.174;6.730;2022-12-07T06:34:21;3.60;99.90
56542;DHT22;42438;53.174;6.730;2022-12-07T06:36:53;2.70;99.90
56542;DHT22;42438;53.174;6.730;2022-12-07T06:39:27;3.20;99.90
56542;DHT22;42438;53.174;6.730;2022-12-07T06:41:58;3.20;99.90
56542;DHT22;42438;53.174;6.730;2022-12-07T06:44:28;2.70;99.90
56542;DHT22;42438;53.174;6.730;2022-12-07T06:46:59;2.60;99.90
56542;DHT22;42438;53.174;6.730;2022-12-07T06:49:30;2.80;99.90
56542;DHT22;42438;53.174;6.730;2022-12-07T06:52:00;2.80;99.90
56542;DHT22;42438;53.174;6.730;2022-12-07T06:54:31;2.60;99.90
56542;DHT22;42438;53.174;6.730;2022-12-07T06:57:02;2.60;99.90
56542;DHT22;42438;53.174;6.730;2022-12-07T06:59:33;2.20;99.90
56542;DHT22;42438;53.174;6.730;2022-12-07T07:02:03;2.40;99.90
56542;DHT22;42438;53.174;6.730;2022-12-07T07:04:34;3.20;99.90
56542;DHT22;42438;53.174;6.730;2022-12-07T07:07:04;2.10;99.90
56542;DHT22;42438;53.174;6.730;2022-12-07T07:09:35;2.00;99.90
56542;DHT22;42438;53.174;6.730;2022-12-07T07:12:06;2.60;99.90
56542;DHT22;42438;53.174;6.730;2022-12-07T07:14:37;1.80;99.90
56542;DHT22;42438;53.174;6.730;2022-12-07T07:17:07;1.80;99.90
56542;DHT22;42438;53.174;6.730;2022-12-07T07:19:38;2.20;99.90
56542;DHT22;42438;53.174;6.730;2022-12-07T07:22:09;2.20;99.90
56542;DHT22;42438;53.174;6.730;2022-12-07T07:24:39;3.20;99.90
56542;DHT22;42438;53.174;6.730;2022-12-07T07:27:11;3.30;99.90
56542;DHT22;42438;53.174;6.730;2022-12-07T07:29:41;2.80;99.90
56542;DHT22;42438;53.174;6.730;2022-12-07T07:32:12;2.80;99.90
56542;DHT22;42438;53.174;6.730;2022-12-07T07:34:43;3.10;99.90
56542;DHT22;42438;53.174;6.730;2022-12-07T07:37:13;2.70;99.90
56542;DHT22;42438;53.174;6.730;2022-12-07T07:39:44;3.00;99.90
56542;DHT22;42438;53.174;6.730;2022-12-07T07:42:15;2.80;99.90
56542;DHT22;42438;53.174;6.730;2022-12-07T07:44:47;2.90;99.90
56542;DHT22;42438;53.174;6.730;2022-12-07T07:47:17;2.80;99.90
56542;DHT22;42438;53.174;6.730;2022-12-07T07:49:48;2.70;99.90
56542;DHT22;42438;53.174;6.730;2022-12-07T07:52:19;2.90;99.90
56542;DHT22;42438;53.174;6.730;2022-12-07T07:54:49;3.20;99.90
56542;DHT22;42438;53.174;6.730;2022-12-07T07:57:20;3.70;99.90
56542;DHT22;42438;53.174;6.730;2022-12-07T07:59:51;3.00;99.90
56542;DHT22;42438;53.174;6.730;2022-12-07T08:02:22;3.00;99.90
56542;DHT22;42438;53.174;6.730;2022-12-07T08:04:52;3.00;99.90
56542;DHT22;42438;53.174;6.730;2022-12-07T08:07:23;2.90;99.90
56542;DHT22;42438;53.174;6.730;2022-12-07T08:09:54;3.00;99.90
56542;DHT22;42438;53.174;6.730;2022-12-07T08:12:24;2.90;99.90
56542;DHT22;42438;53.174;6.730;2022-12-07T08:14:55;2.70;99.90
56542;DHT22;42438;53.174;6.730;2022-12-07T08:17:26;2.70;99.90
56542;DHT22;42438;53.174;6.730;2022-12-07T08:19:57;2.50;99.90
56542;DHT22;42438;53.174;6.730;2022-12-07T08:22:28;2.50;99.90
56542;DHT22;42438;53.174;6.730;2022-12-07T08:24:58;2.40;99.90
56542;DHT22;42438;53.174;6.730;2022-12-07T08:27:29;2.40;99.90
56542;DHT22;42438;53.174;6.730;2022-12-07T08:30:00;2.40;99.90
56542;DHT22;42438;53.174;6.730;2022-12-07T08:32:30;2.20;99.90
56542;DHT22;42438;53.174;6.730;2022-12-07T08:35:01;2.40;99.90
56542;DHT22;42438;53.174;6.730;2022-12-07T08:37:32;2.30;99.90
56542;DHT22;42438;53.174;6.730;2022-12-07T08:40:04;2.50;99.90
56542;DHT22;42438;53.174;6.730;2022-12-07T08:42:35;2.40;99.90
56542;DHT22;42438;53.174;6.730;2022-12-07T08:45:12;2.50;99.90
56542;DHT22;42438;53.174;6.730;2022-12-07T08:47:53;2.30;99.90
56542;DHT22;42438;53.174;6.730;2022-12-07T08:50:26;2.60;99.90
56542;DHT22;42438;53.174;6.730;2022-12-07T08:52:57;2.30;99.90
56542;DHT22;42438;53.174;6.730;2022-12-07T08:55:29;2.30;99.90
56542;DHT22;42438;53.174;6.730;2022-12-07T08:58:00;2.60;99.90
56542;DHT22;42438;53.174;6.730;2022-12-07T09:00:32;2.80;99.90
56542;DHT22;42438;53.174;6.730;2022-12-07T09:03:03;2.80;99.90
56542;DHT22;42438;53.174;6.730;2022-12-07T09:05:34;2.90;99.90
56542;DHT22;42438;53.174;6.730;2022-12-07T09:08:05;3.20;99.90
56542;DHT22;42438;53.174;6.730;2022-12-07T09:10:36;3.20;99.90
56542;DHT22;42438;53.174;6.730;2022-12-07T09:13:07;3.80;99.90
56542;DHT22;42438;53.174;6.730;2022-12-07T09:15:38;3.50;99.90
56542;DHT22;42438;53.174;6.730;2022-12-07T09:18:08;3.60;99.90
56542;DHT22;42438;53.174;6.730;2022-12-07T09:20:39;3.80;99.90
56542;DHT22;42438;53.174;6.730;2022-12-07T09:23:10;3.90;99.90
56542;DHT22;42438;53.174;6.730;2022-12-07T09:25:41;3.80;99.90
56542;DHT22;42438;53.174;6.730;2022-12-07T09:28:11;4.00;99.90
56542;DHT22;42438;53.174;6.730;2022-12-07T09:30:49;4.00;99.90
56542;DHT22;42438;53.174;6.730;2022-12-07T09:33:19;4.20;99.90
56542;DHT22;42438;53.174;6.730;2022-12-07T09:35:51;4.30;99.90
56542;DHT22;42438;53.174;6.730;2022-12-07T09:38:22;4.30;99.90
56542;DHT22;42438;53.174;6.730;2022-12-07T09:40:55;4.40;99.90
56542;DHT22;42438;53.174;6.730;2022-12-07T09:43:26;4.50;99.90
56542;DHT22;42438;53.174;6.730;2022-12-07T09:45:56;4.70;99.90
56542;DHT22;42438;53.174;6.730;2022-12-07T09:48:33;4.80;99.90
56542;DHT22;42438;53.174;6.730;2022-12-07T09:53:45;4.70;99.90
56542;DHT22;42438;53.174;6.730;2022-12-07T09:56:18;4.80;99.90
56542;DHT22;42438;53.174;6.730;2022-12-07T09:58:51;4.60;99.90
56542;DHT22;42438;53.174;6.730;2022-12-07T10:01:27;4.60;99.90
56542;DHT22;42438;53.174;6.730;2022-12-07T10:04:20;4.80;99.90
56542;DHT22;42438;53.174;6.730;2022-12-07T10:06:51;4.80;99.90
56542;DHT22;42438;53.174;6.730;2022-12-07T10:09:22;4.90;99.90
56542;DHT22;42438;53.174;6.730;2022-12-07T10:15:00;4.90;99.90
56542;DHT22;42438;53.174;6.730;2022-12-07T10:17:40;5.00;99.90
56542;DHT22;42438;53.174;6.730;2022-12-07T10:20:25;5.00;99.90
56542;DHT22;42438;53.174;6.730;2022-12-07T10:25:33;5.00;99.90
56542;DHT22;42438;53.174;6.730;2022-12-07T10:33:37;5.00;99.90
56542;DHT22;42438;53.174;6.730;2022-12-07T10:36:27;5.00;99.90
56542;DHT22;42438;53.174;6.730;2022-12-07T10:39:41;5.10;99.90
56542;DHT22;42438;53.174;6.730;2022-12-07T10:41:56;5.10;99.90
56542;DHT22;42438;53.174;6.730;2022-12-07T10:44:32;5.20;99.90
56542;DHT22;42438;53.174;6.730;2022-12-07T10:47:25;5.40;99.90
56542;DHT22;42438;53.174;6.730;2022-12-07T10:50:17;5.40;99.90
56542;DHT22;42438;53.174;6.730;2022-12-07T11:06:31;5.50;99.90
56542;DHT22;42438;53.174;6.730;2022-12-07T11:14:44;5.40;99.90
56542;DHT22;42438;53.174;6.730;2022-12-07T11:22:56;5.00;99.90
56542;DHT22;42438;53.174;6.730;2022-12-07T11:25:53;5.00;99.90
56542;DHT22;42438;53.174;6.730;2022-12-07T11:31:32;4.80;99.90
56542;DHT22;42438;53.174;6.730;2022-12-07T11:34:19;4.80;99.90
56542;DHT22;42438;53.174;6.730;2022-12-07T11:36:54;4.70;99.90
56542;DHT22;42438;53.174;6.730;2022-12-07T11:39:35;4.60;99.90
56542;DHT22;42438;53.174;6.730;2022-12-07T11:48:17;4.90;99.90
56542;DHT22;42438;53.174;6.730;2022-12-07T11:50:55;5.10;99.90
56542;DHT22;42438;53.174;6.730;2022-12-07T11:53:49;5.00;99.90
56542;DHT22;42438;53.174;6.730;2022-12-07T11:56:25;5.20;99.90
56542;DHT22;42438;53.174;6.730;2022-12-07T11:59:01;5.20;99.90
56542;DHT22;42438;53.174;6.730;2022-12-07T12:06:44;5.10;99.90
56542;DHT22;42438;53.174;6.730;2022-12-07T12:14:46;5.20;99.90
56542;DHT22;42438;53.174;6.730;2022-12-07T12:17:40;5.10;99.90
56542;DHT22;42438;53.174;6.730;2022-12-07T12:27:00;4.70;99.90
56542;DHT22;42438;53.174;6.730;2022-12-07T12:29:35;4.60;99.90
56542;DHT22;42438;53.174;6.730;2022-12-07T12:32:13;4.50;99.90
56542;DHT22;42438;53.174;6.730;2022-12-07T12:42:57;4.50;99.90
56542;DHT22;42438;53.174;6.730;2022-12-07T12:45:30;4.60;99.90
56542;DHT22;42438;53.174;6.730;2022-12-07T12:48:26;4.60;99.90
56542;DHT22;42438;53.174;6.730;2022-12-07T12:54:15;5.10;99.90
56542;DHT22;42438;53.174;6.730;2022-12-07T13:15:37;5.00;99.90
56542;DHT22;42438;53.174;6.730;2022-12-07T13:26:19;4.80;99.90
56542;DHT22;42438;53.174;6.730;2022-12-07T13:28:58;4.70;99.90
56542;DHT22;42438;53.174;6.730;2022-12-07T13:31:47;4.60;99.90
56542;DHT22;42438;53.174;6.730;2022-12-07T13:34:30;4.50;99.90
56542;DHT22;42438;53.174;6.730;2022-12-07T13:37:12;4.50;99.90
56542;DHT22;42438;53.174;6.730;2022-12-07T13:39:56;4.40;99.90
56542;DHT22;42438;53.174;6.730;2022-12-07T13:42:30;4.50;99.90
56542;DHT22;42438;53.174;6.730;2022-12-07T13:45:24;4.50;99.90
56542;DHT22;42438;53.174;6.730;2022-12-07T13:48:19;4.40;99.90
56542;DHT22;42438;53.174;6.730;2022-12-07T13:50:55;4.40;99.90
56542;DHT22;42438;53.174;6.730;2022-12-07T13:53:27;4.30;99.90
56542;DHT22;42438;53.174;6.730;2022-12-07T13:56:03;4.10;99.90
56542;DHT22;42438;53.174;6.730;2022-12-07T13:58:34;4.30;99.90
56542;DHT22;42438;53.174;6.730;2022-12-07T14:01:06;4.10;99.90
56542;DHT22;42438;53.174;6.730;2022-12-07T14:03:37;4.00;99.90
56542;DHT22;42438;53.174;6.730;2022-12-07T14:06:22;4.00;99.90
56542;DHT22;42438;53.174;6.730;2022-12-07T14:09:21;3.90;99.90
56542;DHT22;42438;53.174;6.730;2022-12-07T14:11:55;3.70;99.90
56542;DHT22;42438;53.174;6.730;2022-12-07T14:14:29;3.60;99.90
56542;DHT22;42438;53.174;6.730;2022-12-07T14:20:02;3.60;99.90
56542;DHT22;42438;53.174;6.730;2022-12-07T14:22:37;3.50;99.90
56542;DHT22;42438;53.174;6.730;2022-12-07T14:25:20;3.60;99.90
56542;DHT22;42438;53.174;6.730;2022-12-07T14:27:55;3.30;99.90
56542;DHT22;42438;53.174;6.730;2022-12-07T14:30:31;3.00;99.90
56542;DHT22;42438;53.174;6.730;2022-12-07T14:33:04;3.10;99.90
56542;DHT22;42438;53.174;6.730;2022-12-07T14:35:37;3.10;99.90
56542;DHT22;42438;53.174;6.730;2022-12-07T14:38:10;2.90;99.90
56542;DHT22;42438;53.174;6.730;2022-12-07T14:40:41;2.80;99.90
56542;DHT22;42438;53.174;6.730;2022-12-07T14:43:15;3.00;99.90
56542;DHT22;42438;53.174;6.730;2022-12-07T14:45:46;2.70;99.90
56542;DHT22;42438;53.174;6.730;2022-12-07T14:48:17;2.90;99.90
56542;DHT22;42438;53.174;6.730;2022-12-07T14:50:52;3.00;99.90
56542;DHT22;42438;53.174;6.730;2022-12-07T14:53:33;2.90;99.90
56542;DHT22;42438;53.174;6.730;2022-12-07T14:56:06;2.80;99.90
56542;DHT22;42438;53.174;6.730;2022-12-07T14:58:37;3.10;99.90
56542;DHT22;42438;53.174;6.730;2022-12-07T15:01:07;3.00;99.90
56542;DHT22;42438;53.174;6.730;2022-12-07T15:03:38;3.20;99.90
56542;DHT22;42438;53.174;6.730;2022-12-07T15:06:13;2.90;99.90
56542;DHT22;42438;53.174;6.730;2022-12-07T15:08:44;3.40;99.90
56542;DHT22;42438;53.174;6.730;2022-12-07T15:11:16;3.10;99.90
56542;DHT22;42438;53.174;6.730;2022-12-07T15:13:47;3.20;99.90
56542;DHT22;42438;53.174;6.730;2022-12-07T15:16:39;3.20;99.90
56542;DHT22;42438;53.174;6.730;2022-12-07T15:19:18;3.20;99.90
56542;DHT22;42438;53.174;6.730;2022-12-07T15:21:50;3.30;99.90
56542;DHT22;42438;53.174;6.730;2022-12-07T15:24:20;3.00;99.90
56542;DHT22;42438;53.174;6.730;2022-12-07T15:26:52;3.60;99.90
56542;DHT22;42438;53.174;6.730;2022-12-07T15:29:22;3.20;99.90
56542;DHT22;42438;53.174;6.730;2022-12-07T15:31:53;3.20;99.90
56542;DHT22;42438;53.174;6.730;2022-12-07T15:34:25;3.10;99.90
56542;DHT22;42438;53.174;6.730;2022-12-07T15:36:58;3.20;99.90
56542;DHT22;42438;53.174;6.730;2022-12-07T15:39:29;3.10;99.90
56542;DHT22;42438;53.174;6.730;2022-12-07T15:42:00;3.00;99.90
56542;DHT22;42438;53.174;6.730;2022-12-07T15:44:30;2.70;99.90
56542;DHT22;42438;53.174;6.730;2022-12-07T15:47:20;2.90;99.90
56542;DHT22;42438;53.174;6.730;2022-12-07T15:49:51;2.70;99.90
56542;DHT22;42438;53.174;6.730;2022-12-07T15:52:21;2.90;99.90
56542;DHT22;42438;53.174;6.730;2022-12-07T15:54:52;3.00;99.90
56542;DHT22;42438;53.174;6.730;2022-12-07T15:57:23;2.70;99.90
56542;DHT22;42438;53.174;6.730;2022-12-07T15:59:53;2.70;99.90
56542;DHT22;42438;53.174;6.730;2022-12-07T16:02:24;2.60;99.90
56542;DHT22;42438;53.174;6.730;2022-12-07T16:04:55;2.90;99.90
56542;DHT22;42438;53.174;6.730;2022-12-07T16:07:26;2.70;99.90
56542;DHT22;42438;53.174;6.730;2022-12-07T16:09:56;2.60;99.90
56542;DHT22;42438;53.174;6.730;2022-12-07T16:12:27;2.60;99.90
56542;DHT22;42438;53.174;6.730;2022-12-07T16:14:58;2.80;99.90
56542;DHT22;42438;53.174;6.730;2022-12-07T16:17:29;2.50;99.90
56542;DHT22;42438;53.174;6.730;2022-12-07T16:19:59;2.50;99.90
56542;DHT22;42438;53.174;6.730;2022-12-07T16:22:30;2.90;99.90
56542;DHT22;42438;53.174;6.730;2022-12-07T16:25:02;2.30;99.90
56542;DHT22;42438;53.174;6.730;2022-12-07T16:27:33;2.40;99.90
56542;DHT22;42438;53.174;6.730;2022-12-07T16:30:05;3.00;99.90
56542;DHT22;42438;53.174;6.730;2022-12-07T16:32:36;2.40;99.90
56542;DHT22;42438;53.174;6.730;2022-12-07T16:35:07;2.50;99.90
56542;DHT22;42438;53.174;6.730;2022-12-07T16:37:37;2.20;99.90
56542;DHT22;42438;53.174;6.730;2022-12-07T16:40:09;2.40;99.90
56542;DHT22;42438;53.174;6.730;2022-12-07T16:42:39;2.60;99.90
56542;DHT22;42438;53.174;6.730;2022-12-07T16:45:10;2.40;99.90
56542;DHT22;42438;53.174;6.730;2022-12-07T16:47:41;2.50;99.90
56542;DHT22;42438;53.174;6.730;2022-12-07T16:50:12;2.70;99.90
56542;DHT22;42438;53.174;6.730;2022-12-07T16:52:42;3.20;99.90
56542;DHT22;42438;53.174;6.730;2022-12-07T16:55:13;2.90;99.90
56542;DHT22;42438;53.174;6.730;2022-12-07T16:57:44;3.00;99.90
56542;DHT22;42438;53.174;6.730;2022-12-07T17:00:14;3.10;99.90
56542;DHT22;42438;53.174;6.730;2022-12-07T17:02:45;2.60;99.90
56542;DHT22;42438;53.174;6.730;2022-12-07T17:05:16;2.90;99.90
56542;DHT22;42438;53.174;6.730;2022-12-07T17:07:46;3.10;99.90
56542;DHT22;42438;53.174;6.730;2022-12-07T17:10:17;3.10;99.90
56542;DHT22;42438;53.174;6.730;2022-12-07T17:12:48;2.60;99.90
56542;DHT22;42438;53.174;6.730;2022-12-07T17:15:19;2.80;99.90
56542;DHT22;42438;53.174;6.730;2022-12-07T17:17:55;2.70;99.90
56542;DHT22;42438;53.174;6.730;2022-12-07T17:20:26;2.80;99.90
56542;DHT22;42438;53.174;6.730;2022-12-07T17:22:57;3.00;99.90
56542;DHT22;42438;53.174;6.730;2022-12-07T17:25:27;3.10;99.90
56542;DHT22;42438;53.174;6.730;2022-12-07T17:27:58;2.90;99.90
56542;DHT22;42438;53.174;6.730;2022-12-07T17:30:30;2.80;99.90
56542;DHT22;42438;53.174;6.730;2022-12-07T17:33:01;3.20;99.90
56542;DHT22;42438;53.174;6.730;2022-12-07T17:35:32;2.90;99.90
56542;DHT22;42438;53.174;6.730;2022-12-07T17:38:02;3.60;99.90
56542;DHT22;42438;53.174;6.730;2022-12-07T17:40:33;2.70;99.90
56542;DHT22;42438;53.174;6.730;2022-12-07T17:43:04;2.80;99.90
56542;DHT22;42438;53.174;6.730;2022-12-07T17:45:36;2.80;99.90
56542;DHT22;42438;53.174;6.730;2022-12-07T17:48:07;2.60;99.90
56542;DHT22;42438;53.174;6.730;2022-12-07T17:50:38;3.40;99.90
56542;DHT22;42438;53.174;6.730;2022-12-07T17:53:27;2.60;99.90
56542;DHT22;42438;53.174;6.730;2022-12-07T17:55:59;2.40;99.90
56542;DHT22;42438;53.174;6.730;2022-12-07T17:58:29;2.50;99.90
56542;DHT22;42438;53.174;6.730;2022-12-07T18:01:00;2.50;99.90
56542;DHT22;42438;53.174;6.730;2022-12-07T18:03:31;2.70;99.90
56542;DHT22;42438;53.174;6.730;2022-12-07T18:06:01;2.60;99.90
56542;DHT22;42438;53.174;6.730;2022-12-07T18:08:34;2.70;99.90
56542;DHT22;42438;53.174;6.730;2022-12-07T18:11:06;2.70;99.90
56542;DHT22;42438;53.174;6.730;2022-12-07T18:13:37;2.70;99.90
56542;DHT22;42438;53.174;6.730;2022-12-07T18:16:12;2.60;99.90
56542;DHT22;42438;53.174;6.730;2022-12-07T18:18:43;3.80;99.90
56542;DHT22;42438;53.174;6.730;2022-12-07T18:21:16;2.50;99.90
56542;DHT22;42438;53.174;6.730;2022-12-07T18:23:51;2.50;99.90
56542;DHT22;42438;53.174;6.730;2022-12-07T18:26:23;2.70;99.90
56542;DHT22;42438;53.174;6.730;2022-12-07T18:28:55;2.80;99.90
56542;DHT22;42438;53.174;6.730;2022-12-07T18:31:26;2.60;99.90